The Sea Ranch, CA

2:00 AM PST on December 07, 2016 (GMT -0800)
| | Change Station

Elev -9999 ft 0.00 °N, 0.00 °E | Updated

Cloudy
Cloudy
36 °F
Feels Like 32 °F
N
4
Wind Variable Wind from East
Gusts mph

Today
High -- | Low -- °F
--% Chance of Precip.
Yesterday
High -- | Low -- °F
Precip. -- in
Pressure 30.17 in
Visibility 9.0 miles
Clouds Clear
Windchill 32 °F
Dew Point 29 °F
Humidity 73%
Rainfall --
Snow Depth Not available.
7:18 AM 4:52 PM
Waxing Crescent, 51% visible
METAR KUKI 070956Z AUTO 00000KT 9SM CLR M01/M01 A3017 RMK AO2 SLP216 T10061011
Pressure 30.17 in
Visibility 9.0 miles
Clouds Clear
Windchill 32 °F
Dew Point 29 °F
Humidity 73%
Rainfall --
Snow Depth Not available.
7:18 AM 4:52 PM
Waxing Crescent, 51% visible
METAR KUKI 070956Z AUTO 00000KT 9SM CLR M01/M01 A3017 RMK AO2 SLP216 T10061011

10-Day Weather Forecast

Almanac

Astronomy

Dec. 07, 2016 Rise Set
Actual Time
Civil Twilight
Nautical Twilight
Astronomical Twilight
Moon
Length of Visible Light
Length of Day
Tomorrow will be .
, % of the Moon is Illuminated

Today's Extremes

State Highs State Lows

Community

WunderPhotos

Upload Photos

1,956,111 photos uploaded!

WunderBlog® & News

Nearby

Air Quality

  Air Quality AQ Index Pollutant
Not available.

Snow Depth

Station Depth Elevation

Earthquake Activity

City Distance Mag. Time & Date
Minimum magnitude displayed is 2.5.

Coastal Water Temperatures

Place Temperature

Stations

Nearby Weather Stations

Station Location Temp. Windchill Dew Point Humidity Wind Precip. Elev Updated Type
                   

Watches & Warnings

There are currently no watches in effect.